Time;durP1;ratioP1;P1;durP2;ratioP2;P2;SDS_P1;SDS_P2;PMS_P1;PMS_P2;Temp;Humidity;BMP_temperature;BMP_pressure;BME280_temperature;BME280_humidity;BME280_pressure;Samples;Min_cycle;Max_cycle;Signal;HPM_P1;HPM_P2
2022/01/12 00:01:15;;;;;;;69.30;26.52;;;;;;;3.16;100.00;103616.25;5101824;28;21162;-71
2022/01/12 00:03:44;;;;;;;67.38;25.92;;;;;;;3.15;100.00;103625.00;5104529;28;20101;-71
2022/01/12 00:06:14;;;;;;;76.70;28.30;;;;;;;3.15;100.00;103628.56;5096637;27;20056;-71
2022/01/12 00:09:07;;;;;;;70.78;27.52;;;;;;;3.17;100.00;103633.91;5099195;27;20117;-69
2022/01/12 00:11:37;;;;;;;66.10;25.17;;;;;;;3.17;100.00;103626.88;5103412;27;20054;-72
2022/01/12 00:14:06;;;;;;;67.40;25.45;;;;;;;3.20;100.00;103622.56;5093520;27;20449;-71
2022/01/12 00:16:34;;;;;;;57.95;23.08;;;;;;;3.17;100.00;103624.25;5106005;27;20075;-71
2022/01/12 00:19:02;;;;;;;64.85;24.20;;;;;;;3.17;100.00;103626.00;5107610;27;20576;-72
2022/01/12 00:21:29;;;;;;;67.07;25.60;;;;;;;3.17;100.00;103611.06;5106588;27;20053;-72
2022/01/12 00:23:57;;;;;;;70.30;25.48;;;;;;;3.14;100.00;103600.38;5104428;27;20071;-71
2022/01/12 00:26:39;;;;;;;64.18;24.75;;;;;;;3.14;100.00;103600.38;5103410;27;20144;-72
2022/01/12 00:35:04;;;;;;;66.82;24.70;;;;;;;3.17;100.00;103591.69;5100312;27;21369;-71
2022/01/12 00:37:32;;;;;;;82.30;28.48;;;;;;;3.13;100.00;103603.88;5107853;27;20156;-71
2022/01/12 00:40:00;;;;;;;68.38;27.88;;;;;;;3.15;100.00;103611.81;5108816;27;20051;-70
2022/01/12 00:42:28;;;;;;;64.03;24.95;;;;;;;3.15;100.00;103598.63;5108564;27;20158;-71
2022/01/12 00:45:01;;;;;;;69.63;25.50;;;;;;;3.16;100.00;103603.06;5107392;27;20070;-71
2022/01/12 00:47:29;;;;;;;65.78;24.42;;;;;;;3.17;100.00;103618.97;5104538;27;20047;-71
2022/01/12 00:49:56;;;;;;;64.25;23.30;;;;;;;3.17;100.00;103620.72;5111117;27;20048;-71
2022/01/12 00:52:25;;;;;;;63.53;26.83;;;;;;;3.18;100.00;103628.72;5104180;27;20166;-71
2022/01/12 00:54:53;;;;;;;61.97;23.88;;;;;;;3.27;100.00;103638.75;5098747;27;20043;-70
2022/01/12 00:57:20;;;;;;;58.15;22.75;;;;;;;3.24;100.00;103622.78;5107113;27;20059;-71
2022/01/12 00:59:48;;;;;;;51.03;20.75;;;;;;;3.23;100.00;103614.78;5107780;27;20073;-71
2022/01/12 01:02:17;;;;;;;56.47;23.25;;;;;;;3.22;100.00;103620.91;5110333;27;20074;-70
2022/01/12 01:04:45;;;;;;;63.05;24.17;;;;;;;3.22;100.00;103608.63;5083763;27;20066;-70
2022/01/12 01:07:13;;;;;;;55.03;21.02;;;;;;;3.23;100.00;103612.16;5109178;27;20133;-70
2022/01/12 01:09:47;;;;;;;57.88;20.58;;;;;;;3.24;100.00;103616.59;5104937;27;20162;-69
2022/01/12 01:12:16;;;;;;;61.05;23.17;;;;;;;3.23;100.00;103605.13;5108048;27;20043;-70
2022/01/12 01:14:49;;;;;;;57.67;18.55;;;;;;;3.23;100.00;103604.25;5105740;27;20054;-69
2022/01/12 01:25:32;;;;;;;53.28;20.52;;;;;;;3.17;100.00;103586.41;5108037;27;20055;-72
2022/01/12 01:28:01;;;;;;;48.90;19.42;;;;;;;3.18;100.00;103582.91;5102959;27;20323;-70
2022/01/12 01:30:29;;;;;;;50.78;21.52;;;;;;;3.14;100.00;103583.66;5102072;27;20133;-70
2022/01/12 01:33:04;;;;;;;54.45;21.13;;;;;;;3.13;100.00;103595.03;5106438;27;20310;-70
2022/01/12 01:35:57;;;;;;;49.63;18.88;;;;;;;3.09;100.00;103603.66;5106187;27;20078;-70
2022/01/12 01:38:25;;;;;;;47.60;19.70;;;;;;;3.09;100.00;103616.84;5106321;27;20161;-70
2022/01/12 01:40:54;;;;;;;47.63;20.05;;;;;;;3.10;100.00;103610.72;5107302;27;20093;-70
2022/01/12 01:43:38;;;;;;;49.10;18.52;;;;;;;3.13;100.00;103624.97;5105849;27;20075;-70
2022/01/12 01:54:27;;;;;;;56.10;20.88;;;;;;;3.09;100.00;103657.31;5105562;27;20055;-70
2022/01/12 01:56:56;;;;;;;48.47;19.50;;;;;;;3.09;100.00;103678.41;5105449;27;20510;-71
2022/01/12 01:59:25;;;;;;;49.70;20.25;;;;;;;3.09;100.00;103682.81;5105476;27;20047;-71
2022/01/12 02:01:57;;;;;;;46.50;20.00;;;;;;;3.06;100.00;103665.09;5103379;27;20054;-69
2022/01/12 02:04:31;;;;;;;43.85;20.23;;;;;;;3.08;100.00;103676.63;5103272;27;20048;-69
2022/01/12 02:06:59;;;;;;;;;;;;;;;3.09;100.00;103703.91;5107380;27;20066;-70
2022/01/12 02:09:30;;;;;;;53.10;22.35;;;;;;;3.06;100.00;103720.50;5106643;27;20422;-69
2022/01/12 02:11:58;;;;;;;53.15;20.92;;;;;;;3.08;100.00;103731.13;5105568;27;20468;-69
2022/01/12 02:14:29;;;;;;;53.58;20.30;;;;;;;3.07;100.00;103724.94;5109133;27;20055;-70
2022/01/12 02:17:02;;;;;;;47.17;19.83;;;;;;;3.10;100.00;103730.38;5089330;27;20269;-70
2022/01/12 02:19:50;;;;;;;46.92;19.73;;;;;;;3.12;100.00;103727.81;5105107;27;20815;-72
2022/01/12 02:36:18;;;;;;;46.35;20.70;;;;;;;3.20;100.00;103742.22;5104604;27;20084;-71
2022/01/12 02:41:33;;;;;;;52.80;19.48;;;;;;;3.20;100.00;103749.25;5108308;27;20126;-71
2022/01/12 02:55:10;;;;;;;52.15;20.80;;;;;;;3.23;100.00;103745.00;5103734;27;20057;-70
2022/01/12 02:58:02;;;;;;;67.32;24.98;;;;;;;3.22;100.00;103743.22;5107643;27;20039;-70
2022/01/12 03:00:45;;;;;;;64.35;23.80;;;;;;;3.18;100.00;103734.25;5104424;27;20046;-70
2022/01/12 03:03:21;;;;;;;62.40;22.85;;;;;;;3.16;100.00;103729.72;5104292;27;20043;-71
2022/01/12 03:05:57;;;;;;;58.38;22.80;;;;;;;3.17;100.00;103743.00;5106788;27;20331;-71
2022/01/12 03:08:26;;;;;;;56.97;21.40;;;;;;;3.17;100.00;103735.09;5105013;27;20054;-71
2022/01/12 03:10:56;;;;;;;61.65;23.55;;;;;;;3.15;100.00;103728.84;5106555;28;20494;-71
2022/01/12 03:13:25;;;;;;;69.07;24.73;;;;;;;3.13;100.00;103717.31;5104086;27;20047;-70
2022/01/12 03:15:54;;;;;;;64.50;23.88;;;;;;;3.14;100.00;103705.91;5106465;27;20047;-70
2022/01/12 03:18:22;;;;;;;62.10;22.80;;;;;;;3.14;100.00;103699.75;5106073;27;20286;-70
2022/01/12 03:20:51;;;;;;;63.88;22.98;;;;;;;3.14;100.00;103713.84;5105284;28;20087;-71
2022/01/12 03:23:19;;;;;;;56.97;22.67;;;;;;;3.14;100.00;103723.50;5102328;27;20051;-70
2022/01/12 03:25:48;;;;;;;65.28;22.80;;;;;;;3.14;100.00;103731.41;5102958;28;20568;-70
2022/01/12 03:28:19;;;;;;;65.78;22.98;;;;;;;3.18;100.00;103754.44;5086856;27;20050;-71
2022/01/12 03:31:19;;;;;;;62.30;23.23;;;;;;;3.17;100.00;103755.31;5106531;27;20506;-70
2022/01/12 03:33:57;;;;;;;64.68;22.98;;;;;;;3.17;100.00;103761.47;5105930;27;20100;-71
2022/01/12 03:36:29;;;;;;;59.33;21.55;;;;;;;3.21;100.00;103758.97;5102065;28;20275;-71
2022/01/12 03:38:59;;;;;;;62.28;22.98;;;;;;;3.21;100.00;103761.63;5105243;27;20048;-72
2022/01/12 03:41:30;;;;;;;63.35;22.27;;;;;;;3.19;100.00;103764.19;5103874;28;20065;-71
2022/01/12 03:44:01;;;;;;;60.83;22.60;;;;;;;3.21;100.00;103764.25;5098793;28;20133;-71
2022/01/12 03:46:32;;;;;;;62.60;23.50;;;;;;;3.20;100.00;103760.69;5102562;27;20078;-71
2022/01/12 03:49:00;;;;;;;59.92;23.02;;;;;;;3.20;100.00;103767.72;5109184;27;20051;-71
2022/01/12 03:51:28;;;;;;;61.33;22.27;;;;;;;3.23;100.00;103776.66;5108865;27;20046;-71
2022/01/12 03:53:58;;;;;;;72.05;25.17;;;;;;;3.24;100.00;103769.69;5112155;27;20167;-71
2022/01/12 03:56:27;;;;;;;78.60;23.83;;;;;;;3.23;100.00;103766.13;5099290;27;20159;-71
2022/01/12 03:58:54;;;;;;;65.53;24.38;;;;;;;3.25;100.00;103771.47;5109137;27;20051;-71
2022/01/12 04:01:24;;;;;;;74.72;25.52;;;;;;;3.25;100.00;103774.09;5107610;27;20047;-73
2022/01/12 04:03:59;;;;;;;67.20;23.77;;;;;;;3.26;100.00;103774.19;5108085;27;20559;-72
2022/01/12 04:09:33;;;;;;;76.13;24.52;;;;;;;3.27;100.00;103756.59;5111940;27;20220;-71
2022/01/12 04:12:02;;;;;;;70.57;25.92;;;;;;;3.26;100.00;103765.38;5098591;27;21064;-69
2022/01/12 04:14:32;;;;;;;76.15;24.02;;;;;;;3.26;100.00;103766.25;5108341;27;20131;-69
2022/01/12 04:17:01;;;;;;;75.68;27.55;;;;;;;3.25;100.00;103763.53;5098912;27;20078;-69
2022/01/12 04:19:31;;;;;;;75.70;24.05;;;;;;;3.26;100.00;103757.44;5108913;27;20145;-70
2022/01/12 04:22:17;;;;;;;73.13;24.35;;;;;;;3.26;100.00;103758.34;5109569;27;20546;-71
2022/01/12 04:24:54;;;;;;;75.32;25.63;;;;;;;3.26;100.00;103753.06;5109881;27;20055;-71
2022/01/12 04:27:28;;;;;;;67.05;22.77;;;;;;;3.26;100.00;103757.44;5090803;27;20479;-71
2022/01/12 04:29:58;;;;;;;68.97;23.60;;;;;;;3.24;100.00;103767.94;5110538;27;20090;-71
2022/01/12 04:32:37;;;;;;;69.63;23.58;;;;;;;3.24;100.00;103774.97;5108974;27;20141;-69
2022/01/12 04:35:06;;;;;;;73.22;25.88;;;;;;;3.24;100.00;103793.44;5111521;27;20253;-69
2022/01/12 04:37:37;;;;;;;77.32;25.17;;;;;;;3.21;100.00;103794.19;5097739;27;20055;-69
2022/01/12 04:40:08;;;;;;;62.58;22.83;;;;;;;3.22;100.00;103790.72;5109563;27;20202;-69
2022/01/12 04:42:37;;;;;;;71.72;24.15;;;;;;;3.20;100.00;103787.09;5103785;27;20187;-69
2022/01/12 04:45:18;;;;;;;85.50;29.30;;;;;;;3.20;100.00;103784.44;5109021;27;20495;-69
2022/01/12 04:50:50;;;;;;;86.53;26.73;;;;;;;3.17;100.00;103773.78;5110039;27;20055;-69
2022/01/12 04:53:43;;;;;;;79.07;24.88;;;;;;;3.15;100.00;103770.13;5108299;27;20059;-69
2022/01/12 04:56:18;;;;;;;75.20;25.38;;;;;;;3.13;100.00;103780.66;5109769;27;20054;-68
2022/01/12 04:58:57;;;;;;;72.80;24.33;;;;;;;3.11;100.00;103760.28;5107816;27;20857;-70
2022/01/12 05:01:55;;;;;;;66.43;22.58;;;;;;;3.08;100.00;103765.41;5107005;27;20134;-69
2022/01/12 05:07:44;;;;;;;64.88;25.08;;;;;;;3.01;100.00;103766.88;5108760;27;20499;-69
2022/01/12 05:13:09;;;;;;;69.68;23.48;;;;;;;2.87;100.00;103771.50;5064908;28;20569;-71
2022/01/12 05:15:46;;;;;;;68.93;24.60;;;;;;;2.81;100.00;103773.88;5094900;27;20870;-69
2022/01/12 05:18:20;;;;;;;72.60;26.88;;;;;;;2.76;100.00;103789.47;5108535;27;20047;-70
2022/01/12 05:20:54;;;;;;;74.15;23.45;;;;;;;2.72;100.00;103786.63;5110071;27;20499;-71
2022/01/12 05:23:22;;;;;;;54.45;21.10;;;;;;;2.67;100.00;103789.03;5106582;27;20327;-71
2022/01/12 05:25:52;;;;;;;69.65;21.10;;;;;;;2.65;100.00;103801.25;5106965;27;20460;-71
2022/01/12 05:28:21;;;;;;;85.40;24.70;;;;;;;2.60;100.00;103806.28;5106110;27;20075;-71
2022/01/12 05:30:50;;;;;;;67.70;22.17;;;;;;;2.58;100.00;103807.94;5106451;27;20044;-71
2022/01/12 05:33:18;;;;;;;49.13;18.60;;;;;;;2.56;100.00;103811.34;5106845;27;20509;-71
2022/01/12 05:35:46;;;;;;;105.32;23.48;;;;;;;2.52;100.00;103815.59;5106113;27;20048;-71
2022/01/12 05:38:16;;;;;;;79.75;20.70;;;;;;;2.48;100.00;103808.34;5107561;27;20303;-71
2022/01/12 05:40:47;;;;;;;52.15;19.50;;;;;;;2.52;100.00;103810.31;5096950;27;20051;-70
2022/01/12 05:43:21;;;;;;;180.02;27.40;;;;;;;2.48;100.00;103812.72;5105745;27;20389;-70
2022/01/12 05:45:48;;;;;;;41.22;18.15;;;;;;;2.41;100.00;103803.59;5104675;27;20052;-70
2022/01/12 05:51:04;;;;;;;39.47;16.52;;;;;;;2.36;100.00;103807.75;5105217;27;20675;-69
2022/01/12 05:54:20;;;;;;;106.18;21.08;;;;;;;2.34;100.00;103812.03;5073335;27;20099;-69
2022/01/12 05:59:48;;;;;;;110.30;23.48;;;;;;;2.24;100.00;103823.84;5108190;27;20089;-71
2022/01/12 06:02:25;;;;;;;53.88;16.85;;;;;;;2.21;100.00;103824.63;5101318;27;20127;-72
2022/01/12 06:04:53;;;;;;;210.52;28.63;;;;;;;2.17;100.00;103829.63;5108654;27;20298;-74
2022/01/12 06:07:21;;;;;;;103.78;21.30;;;;;;;2.13;100.00;103832.94;5102444;27;20055;-71
2022/01/12 06:09:50;;;;;;;101.05;21.88;;;;;;;2.10;100.00;103838.06;5106422;27;20126;-73
2022/01/12 06:12:18;;;;;;;43.22;16.67;;;;;;;2.11;100.00;103845.13;5104941;27;20129;-72
2022/01/12 06:14:46;;;;;;;35.70;16.13;;;;;;;2.09;100.00;103846.78;5106923;27;20046;-70
2022/01/12 06:17:14;;;;;;;41.95;15.75;;;;;;;2.07;100.00;103853.72;5104730;27;20083;-70
2022/01/12 06:20:08;;;;;;;87.30;20.15;;;;;;;2.00;100.00;103857.75;5106297;27;20534;-70
2022/01/12 06:23:00;;;;;;;53.45;18.75;;;;;;;1.94;100.00;103874.16;5103345;27;20054;-70
2022/01/12 06:25:30;;;;;;;86.55;20.65;;;;;;;1.87;100.00;103874.63;5106269;27;20223;-70
2022/01/12 06:28:20;;;;;;;99.65;21.10;;;;;;;1.84;100.00;103878.03;5109243;27;20143;-70
2022/01/12 06:33:31;;;;;;;36.97;15.55;;;;;;;1.86;100.00;103883.38;5106997;27;20490;-72
2022/01/12 06:35:59;;;;;;;55.90;16.50;;;;;;;1.86;100.00;103875.47;5105564;27;20031;-70
2022/01/12 06:38:27;;;;;;;46.05;15.18;;;;;;;1.83;100.00;103881.47;5107228;27;20044;-70
2022/01/12 06:40:56;;;;;;;38.80;14.73;;;;;;;1.78;100.00;103885.59;5105215;27;20248;-70
2022/01/12 06:43:27;;;;;;;31.95;15.00;;;;;;;1.73;100.00;103881.81;5105093;27;20162;-69
2022/01/12 06:46:04;;;;;;;30.02;13.68;;;;;;;1.74;100.00;103885.34;5104818;27;20055;-71
2022/01/12 06:48:32;;;;;;;61.95;16.33;;;;;;;1.69;100.00;103885.13;5103036;27;20147;-71
2022/01/12 06:51:00;;;;;;;43.85;13.60;;;;;;;1.67;100.00;103887.66;5105979;27;20049;-71
2022/01/12 06:53:28;;;;;;;28.08;12.70;;;;;;;1.65;100.00;103899.84;5105379;27;20594;-71
2022/01/12 06:56:00;;;;;;;26.67;13.80;;;;;;;1.61;100.00;103891.69;5104119;27;20054;-70
2022/01/12 06:58:28;;;;;;;31.38;12.73;;;;;;;1.62;100.00;103901.41;5103272;27;20043;-70
2022/01/12 07:00:56;;;;;;;36.88;14.07;;;;;;;1.59;100.00;103902.13;5105783;27;20067;-70
2022/01/12 07:03:24;;;;;;;35.25;15.52;;;;;;;1.54;100.00;103906.25;5104589;27;20047;-70
2022/01/12 07:05:52;;;;;;;44.42;14.75;;;;;;;1.48;100.00;103914.72;5106389;27;20145;-70
2022/01/12 07:08:19;;;;;;;32.97;12.25;;;;;;;1.51;100.00;103928.88;5105034;27;20043;-70
2022/01/12 07:10:47;;;;;;;52.70;14.68;;;;;;;1.48;100.00;103924.31;5106164;28;20058;-70
2022/01/12 07:13:16;;;;;;;32.10;13.27;;;;;;;1.51;100.00;103928.88;5105609;27;20138;-70
2022/01/12 07:15:45;;;;;;;29.30;13.10;;;;;;;1.53;100.00;103938.66;5107833;27;20237;-72
2022/01/12 07:18:13;;;;;;;28.73;12.25;;;;;;;1.54;100.00;103932.56;5104487;27;20651;-70
2022/01/12 07:20:41;;;;;;;33.17;13.18;;;;;;;1.56;100.00;103935.28;5104873;27;20059;-72
2022/01/12 07:23:11;;;;;;;28.95;12.77;;;;;;;1.55;100.00;103941.38;5105437;27;20075;-72
2022/01/12 07:25:39;;;;;;;36.53;13.23;;;;;;;1.54;100.00;103931.69;5108519;27;20099;-72
2022/01/12 07:28:07;;;;;;;26.05;12.55;;;;;;;1.57;100.00;103931.84;5110904;27;20526;-71
2022/01/12 07:30:37;;;;;;;30.33;13.75;;;;;;;1.55;100.00;103934.41;5110220;27;20055;-71
2022/01/12 07:33:10;;;;;;;29.48;13.43;;;;;;;1.59;100.00;103930.19;5108553;27;20043;-71
2022/01/12 07:35:38;;;;;;;28.65;13.68;;;;;;;1.61;100.00;103936.44;5102345;27;20224;-72
2022/01/12 07:38:06;;;;;;;50.97;15.95;;;;;;;1.60;100.00;103945.16;5107905;27;20051;-72
2022/01/12 07:40:40;;;;;;;23.75;12.93;;;;;;;1.63;100.00;103942.69;5107395;27;20130;-69
2022/01/12 07:46:26;;;;;;;29.85;12.40;;;;;;;1.73;100.00;103950.28;5110701;27;20048;-69
2022/01/12 07:49:15;;;;;;;31.40;13.23;;;;;;;1.74;100.00;103953.78;5105178;27;20517;-69
2022/01/12 07:54:50;;;;;;;28.38;12.27;;;;;;;1.78;100.00;103950.53;5109575;27;20070;-70
2022/01/12 07:57:44;;;;;;;30.85;13.68;;;;;;;1.78;100.00;103946.16;5107931;27;20139;-70
2022/01/12 08:00:20;;;;;;;28.52;11.82;;;;;;;1.79;100.00;103950.63;5108633;27;20055;-70
2022/01/12 08:03:24;;;;;;;43.10;11.73;;;;;;;1.80;100.00;103954.13;5111924;27;20507;-70
2022/01/12 08:05:56;;;;;;;26.20;11.27;;;;;;;1.79;100.00;103971.69;5109177;27;20054;-71
2022/01/12 08:08:24;;;;;;;28.83;12.10;;;;;;;1.81;100.00;103991.09;5110314;27;20062;-71
2022/01/12 08:10:52;;;;;;;33.33;12.10;;;;;;;1.81;100.00;103995.47;5111996;27;20534;-72
2022/01/12 08:13:20;;;;;;;26.38;12.00;;;;;;;1.83;100.00;103994.72;5112058;27;20051;-71
2022/01/12 08:15:48;;;;;;;38.33;13.82;;;;;;;1.84;100.00;103998.28;5109224;27;20088;-72
2022/01/12 08:18:16;;;;;;;23.95;11.68;;;;;;;1.85;100.00;104000.06;5109853;27;20491;-72
2022/01/12 08:20:45;;;;;;;28.83;12.70;;;;;;;1.84;100.00;103999.16;5111711;27;20048;-71
2022/01/12 08:23:13;;;;;;;57.58;14.18;;;;;;;1.82;100.00;103994.63;5108866;27;20499;-71
2022/01/12 08:25:41;;;;;;;25.40;10.70;;;;;;;1.86;100.00;104002.78;5107220;27;20157;-72
2022/01/12 08:28:09;;;;;;;22.45;11.45;;;;;;;1.89;100.00;104001.13;5109520;27;20055;-71
2022/01/12 08:30:37;;;;;;;66.53;15.88;;;;;;;1.91;100.00;104000.41;5107988;27;20075;-73
2022/01/12 08:33:06;;;;;;;35.83;12.88;;;;;;;1.93;100.00;104000.50;5109786;27;20074;-71
2022/01/12 08:35:35;;;;;;;28.08;11.75;;;;;;;1.97;100.00;104006.00;5110207;27;20404;-72
2022/01/12 08:38:05;;;;;;;24.95;11.88;;;;;;;2.01;100.00;104009.69;5106339;27;20480;-74
2022/01/12 08:40:58;;;;;;;23.23;11.63;;;;;;;2.06;100.00;104024.03;5110677;27;20534;-73
2022/01/12 08:43:26;;;;;;;38.35;13.27;;;;;;;2.11;100.00;104016.38;5103493;27;20051;-70
2022/01/12 08:45:54;;;;;;;26.65;10.80;;;;;;;2.14;100.00;104027.06;5106264;27;20051;-71
2022/01/12 08:48:23;;;;;;;28.40;12.13;;;;;;;2.18;100.00;104042.22;5106654;27;20054;-71
2022/01/12 08:50:54;;;;;;;31.75;11.55;;;;;;;2.20;100.00;104037.97;5110447;27;20046;-73
2022/01/12 08:53:23;;;;;;;31.90;12.60;;;;;;;2.23;100.00;104052.19;5108643;27;20051;-72
2022/01/12 08:55:51;;;;;;;31.20;12.77;;;;;;;2.22;100.00;104045.09;5109601;27;20174;-71
2022/01/12 08:58:19;;;;;;;28.52;12.23;;;;;;;2.27;100.00;104049.75;5108763;27;20070;-72
2022/01/12 09:00:47;;;;;;;27.15;13.02;;;;;;;2.31;100.00;104047.31;5108227;27;20513;-72
2022/01/12 09:03:17;;;;;;;35.28;14.25;;;;;;;2.36;100.00;104058.13;5105676;27;20052;-72
2022/01/12 09:05:45;;;;;;;34.58;11.63;;;;;;;2.40;100.00;104058.38;5110529;27;20055;-71
2022/01/12 09:08:13;;;;;;;29.65;11.73;;;;;;;2.49;100.00;104068.50;5106297;27;21678;-73
2022/01/12 09:11:06;;;;;;;37.38;13.88;;;;;;;2.56;100.00;104057.44;5107989;27;20101;-72
2022/01/12 09:13:35;;;;;;;39.67;14.50;;;;;;;2.60;100.00;104063.78;5105285;27;20043;-72
2022/01/12 09:16:06;;;;;;;36.45;13.77;;;;;;;2.67;100.00;104065.00;5108036;27;20129;-71
2022/01/12 09:18:35;;;;;;;36.25;14.75;;;;;;;2.74;100.00;104080.31;5106332;27;20075;-71
2022/01/12 09:21:04;;;;;;;51.05;17.58;;;;;;;2.77;100.00;104075.19;5112528;27;20047;-71
2022/01/12 09:23:32;;;;;;;36.33;14.00;;;;;;;2.84;100.00;104084.34;5106231;27;20054;-71
2022/01/12 09:26:02;;;;;;;34.08;12.45;;;;;;;2.89;100.00;104088.13;5107039;27;20047;-71
2022/01/12 09:28:47;;;;;;;35.53;11.32;;;;;;;2.96;100.00;104101.72;5107784;27;20069;-70
2022/01/12 09:31:16;;;;;;;34.08;13.15;;;;;;;3.02;100.00;104101.13;5088031;27;20047;-71
2022/01/12 09:33:48;;;;;;;44.30;12.77;;;;;;;3.11;100.00;104095.41;5106627;27;20144;-70
2022/01/12 09:36:25;;;;;;;29.75;13.43;;;;;;;3.15;100.00;104098.28;5105128;27;20092;-70
2022/01/12 09:39:06;;;;;;;51.78;14.32;;;;;;;3.19;100.00;104099.34;5090240;27;20133;-70
2022/01/12 09:42:05;;;;;;;30.08;10.50;;;;;;;3.20;100.00;104108.16;5094530;27;20066;-70
2022/01/12 09:44:46;;;;;;;28.88;9.88;;;;;;;3.24;100.00;104105.75;5087894;27;20055;-70
2022/01/12 09:47:21;;;;;;;30.63;10.60;;;;;;;3.20;100.00;104105.53;5069411;27;20146;-70
2022/01/12 09:49:59;;;;;;;27.02;10.32;;;;;;;3.22;100.00;104107.44;5103591;27;20054;-70
2022/01/12 09:52:39;;;;;;;37.17;10.35;;;;;;;3.27;100.00;104115.56;5089406;27;20132;-70
2022/01/12 09:55:15;;;;;;;32.83;9.98;;;;;;;3.31;100.00;104126.34;5105102;27;20594;-70
2022/01/12 10:01:03;;;;;;;28.70;9.20;;;;;;;3.45;100.00;104123.50;5103465;27;20406;-71
2022/01/12 10:04:03;;;;;;;33.10;10.30;;;;;;;3.41;100.00;104114.53;5107991;27;20051;-69
2022/01/12 10:06:37;;;;;;;26.02;11.25;;;;;;;3.51;100.00;104119.44;5087666;27;20867;-70
2022/01/12 10:09:22;;;;;;;30.55;8.75;;;;;;;3.48;100.00;104124.56;5106358;27;20051;-71
2022/01/12 10:11:54;;;;;;;40.92;11.07;;;;;;;3.47;100.00;104124.47;5104116;27;20061;-69
2022/01/12 10:14:55;;;;;;;36.88;11.27;;;;;;;3.46;100.00;104123.59;5104601;27;20495;-69
2022/01/12 10:18:18;;;;;;;53.22;11.82;;;;;;;3.52;100.00;104136.19;5106547;27;20052;-69
2022/01/12 10:21:05;;;;;;;27.85;9.18;;;;;;;3.60;100.00;104136.56;5101244;27;20074;-69
2022/01/12 10:23:41;;;;;;;31.77;10.48;;;;;;;3.64;100.00;104134.13;5106682;27;20043;-69
2022/01/12 10:26:34;;;;;;;30.48;9.73;;;;;;;3.70;100.00;104128.28;5107426;27;20051;-69
2022/01/12 10:29:36;;;;;;;39.05;11.43;;;;;;;3.67;100.00;104115.81;5104628;27;20047;-69
2022/01/12 10:32:41;;;;;;;29.05;11.48;;;;;;;3.78;100.00;104105.78;5108006;27;20125;-69
2022/01/12 10:36:14;;;;;;;37.75;11.55;;;;;;;3.89;100.00;104098.34;5106275;27;20043;-69
2022/01/12 10:42:15;;;;;;;29.95;10.25;;;;;;;3.90;100.00;104113.38;5105649;27;20120;-72
2022/01/12 10:45:03;;;;;;;33.42;11.25;;;;;;;3.95;100.00;104106.59;5105166;27;20169;-69
2022/01/12 10:54:21;;;;;;;33.58;10.75;;;;;;;3.88;100.00;104108.03;5101478;27;20386;-69
2022/01/12 10:57:24;;;;;;;37.72;11.98;;;;;;;3.98;100.00;104121.66;5099850;27;20178;-69
2022/01/12 11:08:57;;;;;;;36.30;12.65;;;;;;;4.08;100.00;104119.53;5068064;27;20441;-72
2022/01/12 11:11:35;;;;;;;32.40;11.82;;;;;;;4.19;100.00;104120.03;5105050;27;20278;-69
2022/01/12 11:17:54;;;;;;;37.10;12.38;;;;;;;4.32;100.00;104112.69;5104864;28;20127;-70
2022/01/12 11:20:52;;;;;;;36.90;13.10;;;;;;;4.28;100.00;104106.34;5102197;27;20313;-68
2022/01/12 11:34:05;;;;;;;49.92;14.25;;;;;;;4.27;100.00;104102.81;5091944;27;20047;-69
2022/01/12 11:36:58;;;;;;;37.42;13.52;;;;;;;4.36;100.00;104085.53;5104624;27;20116;-69
2022/01/12 11:39:33;;;;;;;46.83;14.80;;;;;;;4.44;100.00;104095.66;5083510;28;20054;-71
2022/01/12 11:42:00;;;;;;;52.63;14.55;;;;;;;4.48;100.00;104081.72;5106647;27;20035;-71
2022/01/12 11:44:36;;;;;;;43.22;12.68;;;;;;;4.57;100.00;104082.97;5101976;27;20576;-72
2022/01/12 11:47:05;;;;;;;58.55;14.00;;;;;;;4.44;100.00;104076.22;5104157;27;20051;-73
2022/01/12 11:49:40;;;;;;;53.20;15.02;;;;;;;4.45;100.00;104075.38;5102416;27;20282;-73
2022/01/12 11:52:16;;;;;;;64.70;13.88;;;;;;;4.33;100.00;104081.03;5104227;27;20126;-73
2022/01/12 11:55:12;;;;;;;43.95;12.05;;;;;;;4.43;100.00;104085.88;5103701;28;20104;-73
2022/01/12 11:58:05;;;;;;;50.15;12.38;;;;;;;4.44;100.00;104089.44;5104991;27;20427;-73
2022/01/12 12:04:38;;;;;;;36.70;11.98;;;;;;;4.70;100.00;104074.75;5103544;27;20047;-70
2022/01/12 12:07:22;;;;;;;51.45;12.80;;;;;;;4.70;100.00;104077.38;5088905;28;20082;-73
2022/01/12 12:09:53;;;;;;;50.70;13.50;;;;;;;4.63;100.00;104072.63;5108102;27;20133;-73
2022/01/12 12:12:22;;;;;;;32.88;11.55;;;;;;;4.70;100.00;104073.81;5109094;27;20073;-74
2022/01/12 12:14:54;;;;;;;42.28;13.77;;;;;;;4.82;100.00;104071.72;5109320;27;20051;-73
2022/01/12 12:17:23;;;;;;;56.75;16.17;;;;;;;4.59;100.00;104073.34;5109839;27;20050;-74
2022/01/12 12:19:51;;;;;;;65.90;15.43;;;;;;;4.60;100.00;104078.72;5109393;27;20159;-74
2022/01/12 12:22:24;;;;;;;60.15;17.35;;;;;;;4.58;100.00;104071.53;5110771;27;20135;-73
2022/01/12 12:24:55;;;;;;;52.78;15.95;;;;;;;4.54;100.00;104067.84;5105526;27;20051;-73
2022/01/12 12:27:30;;;;;;;52.95;18.20;;;;;;;4.78;100.00;104061.84;5105092;27;20051;-74
2022/01/12 12:29:59;;;;;;;51.92;14.40;;;;;;;4.71;100.00;104063.31;5105480;27;20054;-73
2022/01/12 12:32:35;;;;;;;82.57;19.73;;;;;;;4.67;100.00;104066.66;5111200;27;20065;-74
2022/01/12 12:35:06;;;;;;;92.32;23.00;;;;;;;4.67;100.00;104064.03;5108247;27;20055;-74
2022/01/12 12:37:38;;;;;;;88.85;24.45;;;;;;;4.60;100.00;104061.94;5106304;27;20054;-74
2022/01/12 12:40:15;;;;;;;75.22;20.92;;;;;;;4.65;100.00;104049.84;5103890;27;20053;-73
2022/01/12 12:42:44;;;;;;;70.63;19.17;;;;;;;4.78;100.00;104038.91;5107043;27;20043;-74
2022/01/12 12:45:12;;;;;;;70.68;20.85;;;;;;;4.88;100.00;104047.25;5104293;27;20056;-74
2022/01/12 12:47:40;;;;;;;62.92;17.88;;;;;;;4.86;100.00;104058.69;5106352;27;20090;-75
2022/01/12 12:50:12;;;;;;;63.25;16.50;;;;;;;4.79;100.00;104066.31;5108511;27;20147;-72
2022/01/12 12:53:06;;;;;;;60.90;17.38;;;;;;;4.84;100.00;104052.41;5105130;27;20119;-72
2022/01/12 12:55:36;;;;;;;67.10;18.98;;;;;;;4.83;100.00;104058.53;5108796;27;20966;-73
2022/01/12 12:58:05;;;;;;;55.97;17.73;;;;;;;4.99;100.00;104064.53;5104199;27;20638;-73
2022/01/12 13:00:35;;;;;;;66.00;21.48;;;;;;;4.88;100.00;104064.03;5107693;27;20051;-75
2022/01/12 13:03:05;;;;;;;80.25;20.48;;;;;;;4.94;100.00;104072.25;5107066;27;20604;-75
2022/01/12 13:05:35;;;;;;;62.25;17.60;;;;;;;5.04;100.00;104068.25;5107648;27;20050;-75
2022/01/12 13:08:04;;;;;;;58.40;19.10;;;;;;;5.11;100.00;104069.41;5104546;27;20362;-75
2022/01/12 13:10:34;;;;;;;65.03;20.13;;;;;;;5.19;100.00;104079.50;5107496;27;20463;-75
2022/01/12 13:13:03;;;;;;;58.33;19.33;;;;;;;5.29;100.00;104090.47;5108412;27;20050;-75
2022/01/12 13:15:34;;;;;;;55.78;18.92;;;;;;;5.26;100.00;104083.31;5105882;27;20097;-75
2022/01/12 13:18:05;;;;;;;58.67;19.17;;;;;;;5.11;100.00;104091.50;5104907;27;20174;-76
2022/01/12 13:23:21;;;;;;;55.65;17.90;;;;;;;5.13;100.00;104080.97;5106325;27;20622;-74
2022/01/12 13:25:54;;;;;;;54.88;18.67;;;;;;;5.27;100.00;104092.16;5106243;27;20498;-74
2022/01/12 13:28:22;;;;;;;63.00;18.20;;;;;;;5.19;100.00;104092.75;5097137;27;20499;-76
2022/01/12 13:30:52;;;;;;;47.17;17.98;;;;;;;5.16;100.00;104094.31;5099280;27;20952;-75
2022/01/12 13:33:28;;;;;;;59.05;18.60;;;;;;;5.13;100.00;104103.06;5099119;27;20488;-75
2022/01/12 13:35:58;;;;;;;49.70;17.73;;;;;;;5.17;100.00;104099.69;5099387;27;20177;-74
2022/01/12 13:38:28;;;;;;;62.60;17.67;;;;;;;5.00;100.00;104101.59;5099055;27;20066;-74
2022/01/12 13:41:06;;;;;;;53.58;18.15;;;;;;;5.11;100.00;104101.16;5101113;27;20385;-74